ADDS TAF Board INFO
 
 

IDs: Format: Expanded Condensed

KDCA - Washington/National, VA, US

Issued at 0858 UTC 28 Aug 2014
Time1052Z28/12Z28/13Z28/14Z28/15Z28/16Z28/17Z28/18Z28/19Z28/20Z28/21Z28/22Z28/23Z29/00Z
TypeOBSPRVLPRVLPRVLPRVLPRVLPRVLPRVLPRVLPRVLPRVLPRVLPRVLPRVL
Vis10>6>6>6>6>6>6>6>6>6>6>6>6>6
Cig250--------------------------
CoverBKNSCTSCTSCTSCTSCTSCTSCTSCTSCTSCTSCTSCTSCT
FltCat--VFRVFRVFRVFRVFRVFRVFRVFRVFRVFRVFRVFRVFR
Wx----------------------------
WDir330350350350350350350350350350350350350350
WSpd118888888888888
WGst----------------------------
R01/19
XWnd51111111111111
HWnd108888888888888
R04/22
XWnd95555555555555
HWnd66666666666666
R15/33
XWnd14444444444444
HWnd-11-7-7-7-7-7-7-7-7-7-7-7-7-7
Raw TAF
KDCA 280858Z 2809/2906 33006KT P6SM SCT250
  FM281200 35008KT P6SM FEW050 SCT250
  FM290500 35004KT P6SM FEW250


Raw METAR
KDCA 281052Z 33011KT 10SM SCT055 BKN250 25/19 A2996 RMK AO2 SLP144 T02500189

TAF Board Legend

Hazard Green Yellow Red Magenta
Visibility (sm) >5 >2.99 >0.99 <=0.99
Ceiling (100 ft) >30 >9.99 >4.99 <=4.99
Wind Speed (kt) <10 <20 <30 >=30
Wind Gust (kt) <10 <20 <30 >=30
Weather No Wx Reported Light precipitation Moderate precipitation Heavy precipitation
Flight Category VFR MVFR IFR LIFR

Page loaded:  11:05 UTC  |   04:05 AM Pacific  |   05:05 AM Mountain  |   06:05 AM Central  |   07:05 AM Eastern

 

ADVISORIES

FORECASTS

FORECASTS

OBSERVATIONS

USER TOOLS

ABOUT US